createdAt,value
2023-07-31T00:01:37.800Z,16.52
2023-07-31T00:04:06.173Z,16.50
2023-07-31T00:06:35.940Z,16.40
2023-07-31T00:09:04.551Z,16.31
2023-07-31T00:11:32.883Z,16.42
2023-07-31T00:14:01.219Z,16.49
2023-07-31T00:16:31.196Z,16.54
2023-07-31T00:18:59.577Z,16.45
2023-07-31T00:21:27.902Z,16.40
2023-07-31T00:23:57.814Z,16.42
2023-07-31T00:26:26.143Z,16.30
2023-07-31T00:28:54.416Z,16.39
2023-07-31T00:31:22.831Z,16.40
2023-07-31T00:33:51.222Z,16.46
2023-07-31T00:36:20.031Z,16.46
2023-07-31T00:38:48.340Z,16.41
2023-07-31T00:41:18.001Z,16.43
2023-07-31T00:43:46.605Z,16.42
2023-07-31T00:46:15.190Z,16.50
2023-07-31T00:48:43.754Z,16.49
2023-07-31T00:51:13.004Z,16.34
2023-07-31T00:53:44.446Z,16.29
2023-07-31T00:56:13.508Z,16.43
2023-07-31T00:58:43.249Z,16.41
2023-07-31T01:01:11.716Z,16.36
2023-07-31T01:03:40.514Z,16.35
2023-07-31T01:06:18.121Z,16.18
2023-07-31T01:08:55.045Z,16.28
2023-07-31T01:11:28.249Z,16.42
2023-07-31T01:13:58.773Z,16.46
2023-07-31T01:16:28.000Z,16.50
2023-07-31T01:18:56.598Z,16.46
2023-07-31T01:21:37.241Z,16.31
2023-07-31T01:24:23.120Z,16.45
2023-07-31T01:26:59.037Z,16.42
2023-07-31T01:29:36.407Z,16.45
2023-07-31T01:32:07.066Z,16.44
2023-07-31T01:34:36.954Z,16.48
2023-07-31T01:37:05.920Z,16.49
2023-07-31T01:39:34.276Z,16.45
2023-07-31T01:42:03.941Z,16.59
2023-07-31T01:44:32.221Z,16.62
2023-07-31T01:47:01.312Z,16.35
2023-07-31T01:49:29.667Z,16.48
2023-07-31T01:51:57.930Z,16.41
2023-07-31T01:54:26.238Z,16.36
2023-07-31T01:56:54.601Z,16.47
2023-07-31T01:59:24.283Z,16.49
2023-07-31T02:01:54.969Z,16.56
2023-07-31T02:04:23.535Z,16.52
2023-07-31T02:06:51.892Z,16.61
2023-07-31T02:09:20.403Z,16.59
2023-07-31T02:11:48.763Z,16.54
2023-07-31T02:14:17.168Z,16.59
2023-07-31T02:16:46.867Z,16.58
2023-07-31T02:19:15.173Z,16.71
2023-07-31T02:21:44.054Z,16.74
2023-07-31T02:24:12.575Z,16.75
2023-07-31T02:26:41.527Z,16.74
2023-07-31T02:29:10.343Z,16.74
2023-07-31T02:31:38.789Z,16.71
2023-07-31T02:34:09.029Z,16.72
2023-07-31T02:36:37.592Z,16.74
2023-07-31T02:39:06.350Z,16.73
2023-07-31T02:41:34.640Z,16.80
2023-07-31T02:44:03.991Z,16.76
2023-07-31T02:46:32.764Z,16.84
2023-07-31T02:49:01.463Z,16.84
2023-07-31T02:51:31.232Z,16.84
2023-07-31T02:53:59.550Z,16.78
2023-07-31T02:56:28.028Z,16.85
2023-07-31T02:58:56.373Z,16.74
2023-07-31T03:01:24.746Z,16.86
2023-07-31T03:03:53.391Z,16.78
2023-07-31T03:06:21.763Z,16.80
2023-07-31T03:08:51.769Z,16.92
2023-07-31T03:11:20.078Z,16.89
2023-07-31T03:13:48.389Z,16.90
2023-07-31T03:16:16.728Z,16.91
2023-07-31T03:18:45.060Z,16.92
2023-07-31T03:21:13.394Z,16.95
2023-07-31T03:23:41.640Z,17.00
2023-07-31T03:26:11.788Z,16.92
2023-07-31T03:28:40.126Z,16.96
2023-07-31T03:31:09.519Z,17.02
2023-07-31T03:33:38.059Z,17.00
2023-07-31T03:36:07.172Z,17.06
2023-07-31T03:38:36.015Z,17.08
2023-07-31T03:41:07.572Z,17.01
2023-07-31T03:43:37.314Z,16.92
2023-07-31T03:46:05.855Z,16.76
2023-07-31T03:48:34.207Z,16.76
2023-07-31T03:51:02.528Z,16.67
2023-07-31T03:53:30.826Z,16.65
2023-07-31T03:55:59.182Z,16.58
2023-07-31T03:58:27.489Z,16.56
2023-07-31T04:00:57.178Z,16.51
2023-07-31T04:03:25.705Z,16.46
2023-07-31T04:05:56.105Z,16.47
2023-07-31T04:08:24.661Z,16.41
2023-07-31T04:10:53.049Z,16.44
2023-07-31T04:13:21.532Z,16.43
2023-07-31T04:15:51.757Z,16.44
2023-07-31T04:18:21.495Z,16.40
2023-07-31T04:20:49.789Z,16.41
2023-07-31T04:23:18.121Z,16.36
2023-07-31T04:25:46.689Z,16.37
2023-07-31T04:28:15.069Z,16.36
2023-07-31T04:30:43.450Z,16.41
2023-07-31T04:33:11.743Z,16.47
2023-07-31T04:35:41.391Z,16.35
2023-07-31T04:38:09.660Z,16.40
2023-07-31T04:40:38.195Z,16.36
2023-07-31T04:43:06.564Z,16.40
2023-07-31T04:45:34.813Z,16.37
2023-07-31T04:48:03.146Z,16.41
2023-07-31T04:50:32.138Z,16.35
2023-07-31T04:53:01.790Z,16.31
2023-07-31T04:55:30.093Z,16.32
2023-07-31T04:57:58.417Z,16.28
2023-07-31T05:00:26.820Z,16.32
2023-07-31T05:02:55.388Z,16.27
2023-07-31T05:05:23.756Z,16.26
2023-07-31T05:07:52.115Z,16.22
2023-07-31T05:10:21.831Z,16.29
2023-07-31T05:12:50.109Z,16.27
2023-07-31T05:15:18.522Z,16.30
2023-07-31T05:17:46.873Z,16.32
2023-07-31T05:20:15.982Z,16.32
2023-07-31T05:22:44.371Z,16.30
2023-07-31T05:25:12.824Z,16.33
2023-07-31T05:27:42.535Z,16.31
2023-07-31T05:30:11.354Z,16.36
2023-07-31T05:32:39.661Z,16.41
2023-07-31T05:35:08.670Z,16.36
2023-07-31T05:37:37.003Z,16.39
2023-07-31T05:40:06.203Z,16.46
2023-07-31T05:42:34.487Z,16.44
2023-07-31T05:45:04.383Z,16.45
2023-07-31T05:47:32.994Z,16.52
2023-07-31T05:50:01.308Z,16.50
2023-07-31T05:52:30.695Z,16.50
2023-07-31T05:54:59.008Z,16.51
2023-07-31T05:57:27.330Z,16.56
2023-07-31T05:59:55.616Z,16.58
2023-07-31T06:02:25.544Z,16.62
2023-07-31T06:04:54.001Z,16.64
2023-07-31T06:07:22.392Z,16.63
2023-07-31T06:09:50.682Z,16.65
2023-07-31T06:12:20.023Z,16.66
2023-07-31T06:14:48.428Z,16.67
2023-07-31T06:17:16.878Z,16.72
2023-07-31T06:19:46.559Z,16.67
2023-07-31T06:22:14.947Z,16.76
2023-07-31T06:24:43.319Z,16.71
2023-07-31T06:27:11.568Z,16.63
2023-07-31T06:29:40.015Z,16.70
2023-07-31T06:32:09.241Z,16.74
2023-07-31T06:34:37.648Z,16.84
2023-07-31T06:37:08.001Z,16.82
2023-07-31T06:39:36.330Z,16.90
2023-07-31T06:42:05.215Z,16.88
2023-07-31T06:44:33.510Z,16.79
2023-07-31T06:47:01.982Z,16.81
2023-07-31T06:49:30.284Z,16.87
2023-07-31T06:51:58.756Z,16.84
2023-07-31T06:54:28.400Z,16.79
2023-07-31T06:56:56.663Z,16.90
2023-07-31T06:59:25.027Z,16.93
2023-07-31T07:01:56.148Z,16.87
2023-07-31T07:04:24.474Z,16.82
2023-07-31T07:06:52.906Z,16.84
2023-07-31T07:09:21.184Z,16.80
2023-07-31T07:11:50.833Z,16.88
2023-07-31T07:14:19.152Z,16.92
2023-07-31T07:16:47.559Z,17.04
2023-07-31T07:19:15.886Z,17.03
2023-07-31T07:21:44.193Z,17.04
2023-07-31T07:24:12.496Z,16.98
2023-07-31T07:26:43.727Z,16.89
2023-07-31T07:29:13.409Z,16.84
2023-07-31T07:31:41.716Z,16.91
2023-07-31T07:34:10.021Z,17.02
2023-07-31T07:36:39.005Z,17.04
2023-07-31T07:39:07.509Z,17.08
2023-07-31T07:41:35.819Z,17.13
2023-07-31T07:44:04.145Z,17.23
2023-07-31T07:46:53.692Z,17.52
2023-07-31T07:49:41.007Z,17.69
2023-07-31T07:52:09.538Z,17.98
2023-07-31T07:54:44.641Z,18.24
2023-07-31T07:57:13.272Z,18.09
2023-07-31T07:59:41.639Z,18.00
2023-07-31T08:02:11.338Z,17.92
2023-07-31T08:04:39.705Z,17.98
2023-07-31T08:07:07.985Z,18.00
2023-07-31T08:09:36.308Z,17.96
2023-07-31T08:12:05.059Z,17.93
2023-07-31T08:14:33.615Z,17.80
2023-07-31T08:17:02.860Z,17.89
2023-07-31T08:19:33.884Z,17.83
2023-07-31T08:22:02.424Z,17.88
2023-07-31T08:24:30.726Z,17.80
2023-07-31T08:26:59.004Z,17.87
2023-07-31T08:29:27.596Z,17.84
2023-07-31T08:31:55.917Z,17.77
2023-07-31T08:34:24.249Z,17.94
2023-07-31T08:36:53.919Z,18.15
2023-07-31T08:39:22.214Z,18.07
2023-07-31T08:41:50.542Z,18.13
2023-07-31T08:44:20.328Z,18.08
2023-07-31T08:46:49.749Z,18.21
2023-07-31T08:49:20.120Z,18.32
2023-07-31T08:51:52.365Z,18.49
2023-07-31T08:54:22.681Z,18.87
2023-07-31T08:56:52.059Z,19.09
2023-07-31T08:59:22.520Z,18.92
2023-07-31T09:01:54.577Z,19.01
2023-07-31T09:04:24.939Z,19.00
2023-07-31T09:06:59.520Z,19.31
2023-07-31T09:09:29.292Z,19.62
2023-07-31T09:11:59.450Z,19.71
2023-07-31T09:14:28.395Z,19.76
2023-07-31T09:16:59.533Z,19.82
2023-07-31T09:19:29.271Z,20.10
2023-07-31T09:21:57.734Z,19.91
2023-07-31T09:24:31.643Z,19.75
2023-07-31T09:27:02.001Z,19.87
2023-07-31T09:29:31.827Z,20.01
2023-07-31T09:32:00.337Z,19.90
2023-07-31T09:34:38.794Z,19.91
2023-07-31T09:37:07.588Z,20.02
2023-07-31T09:39:48.169Z,19.87
2023-07-31T09:42:17.022Z,19.76
2023-07-31T09:44:45.331Z,19.68
2023-07-31T09:47:25.946Z,19.81
2023-07-31T09:49:55.065Z,19.90
2023-07-31T09:52:23.545Z,20.05
2023-07-31T09:54:53.187Z,19.86
2023-07-31T09:57:24.801Z,19.97
2023-07-31T09:59:55.456Z,19.72
2023-07-31T10:02:24.868Z,19.58
2023-07-31T10:04:53.943Z,19.75
2023-07-31T10:07:24.834Z,20.00
2023-07-31T10:09:56.553Z,20.31
2023-07-31T10:12:29.204Z,19.84
2023-07-31T10:14:58.099Z,19.61
2023-07-31T10:17:28.038Z,19.30
2023-07-31T10:19:56.549Z,19.28
2023-07-31T10:22:25.919Z,19.12
2023-07-31T10:24:57.450Z,19.35
2023-07-31T10:27:25.816Z,19.56
2023-07-31T10:29:56.550Z,19.84
2023-07-31T10:32:26.046Z,19.57
2023-07-31T10:34:54.907Z,19.37
2023-07-31T10:37:27.672Z,19.42
2023-07-31T10:40:02.908Z,19.38
2023-07-31T10:42:33.888Z,19.24
2023-07-31T10:45:03.526Z,19.00
2023-07-31T10:47:32.138Z,19.13
2023-07-31T10:50:19.884Z,19.38
2023-07-31T10:52:53.972Z,19.29
2023-07-31T10:55:29.326Z,19.35
2023-07-31T10:57:59.520Z,18.97
2023-07-31T11:00:30.051Z,18.78
2023-07-31T11:03:03.266Z,18.67
2023-07-31T11:05:49.241Z,18.54
2023-07-31T11:08:19.450Z,18.65
2023-07-31T11:10:51.022Z,18.61
2023-07-31T11:13:19.554Z,18.69
2023-07-31T11:15:47.836Z,19.11
2023-07-31T11:18:17.960Z,19.14
2023-07-31T11:20:46.657Z,18.96
2023-07-31T11:23:15.213Z,19.00
2023-07-31T11:25:43.562Z,18.91
2023-07-31T11:28:15.611Z,18.87
2023-07-31T11:30:45.538Z,18.96
2023-07-31T11:33:15.506Z,19.13
2023-07-31T11:35:46.295Z,19.00
2023-07-31T11:38:23.719Z,19.06
2023-07-31T11:40:52.504Z,19.13
2023-07-31T11:43:23.274Z,19.14
2023-07-31T11:45:53.125Z,19.23
2023-07-31T11:48:23.003Z,19.23
2023-07-31T11:50:53.160Z,19.30
2023-07-31T11:53:26.808Z,19.36
2023-07-31T11:55:56.140Z,19.33
2023-07-31T11:58:26.038Z,19.37
2023-07-31T12:00:55.051Z,19.23
2023-07-31T12:03:23.810Z,19.37
2023-07-31T12:05:52.182Z,19.24
2023-07-31T12:08:23.386Z,19.31
2023-07-31T12:10:53.178Z,19.55
2023-07-31T12:13:27.637Z,19.55
2023-07-31T12:15:58.576Z,19.62
2023-07-31T12:18:28.636Z,19.62
2023-07-31T12:20:58.521Z,19.42
2023-07-31T12:23:29.989Z,19.39
2023-07-31T12:26:06.257Z,19.43
2023-07-31T12:28:39.876Z,19.56
2023-07-31T12:31:09.411Z,19.45
2023-07-31T12:33:39.091Z,19.41
2023-07-31T12:36:12.069Z,19.48
2023-07-31T12:38:40.729Z,19.38
2023-07-31T12:41:09.200Z,19.48
2023-07-31T12:43:41.330Z,19.35
2023-07-31T12:46:10.367Z,19.32
2023-07-31T12:48:39.402Z,19.27
2023-07-31T12:51:09.089Z,19.30
2023-07-31T12:53:37.666Z,19.32
2023-07-31T12:56:06.183Z,19.29
2023-07-31T12:58:34.599Z,19.16
2023-07-31T13:01:04.429Z,19.28
2023-07-31T13:03:32.954Z,19.15
2023-07-31T13:06:01.404Z,18.96
2023-07-31T13:08:29.684Z,18.83
2023-07-31T13:10:57.996Z,18.80
2023-07-31T13:13:26.363Z,18.63
2023-07-31T13:15:54.650Z,18.51
2023-07-31T13:18:24.357Z,18.56
2023-07-31T13:20:52.596Z,18.61
2023-07-31T13:23:20.892Z,18.52
2023-07-31T13:25:49.187Z,18.62
2023-07-31T13:28:17.498Z,18.56
2023-07-31T13:30:47.211Z,18.50
2023-07-31T13:33:33.913Z,18.37
2023-07-31T13:36:04.490Z,18.25
2023-07-31T13:38:32.818Z,18.18
2023-07-31T13:41:01.096Z,18.17
2023-07-31T13:43:29.356Z,18.11
2023-07-31T13:45:57.721Z,18.11
2023-07-31T13:48:25.964Z,18.13
2023-07-31T13:50:57.234Z,18.05
2023-07-31T13:53:26.930Z,17.98
2023-07-31T13:55:55.396Z,17.96
2023-07-31T13:58:23.706Z,17.92
2023-07-31T14:00:52.072Z,17.97
2023-07-31T14:03:20.462Z,17.89
2023-07-31T14:05:48.956Z,17.94
2023-07-31T14:08:17.252Z,17.91
2023-07-31T14:10:46.940Z,17.92
2023-07-31T14:13:15.311Z,17.91
2023-07-31T14:15:44.660Z,17.88
2023-07-31T14:18:13.201Z,17.89
2023-07-31T14:20:41.759Z,17.84
2023-07-31T14:23:10.064Z,17.82
2023-07-31T14:25:38.324Z,17.89
2023-07-31T14:28:08.077Z,17.90
2023-07-31T14:30:36.618Z,17.85
2023-07-31T14:33:05.135Z,18.02
2023-07-31T14:35:33.519Z,17.82
2023-07-31T14:38:01.750Z,17.81
2023-07-31T14:40:30.219Z,17.83
2023-07-31T14:42:58.592Z,17.75
2023-07-31T14:45:28.291Z,17.80
2023-07-31T14:47:56.639Z,17.75
2023-07-31T14:50:25.549Z,17.88
2023-07-31T14:52:54.113Z,17.80
2023-07-31T14:55:22.425Z,17.83
2023-07-31T14:57:50.879Z,17.83
2023-07-31T15:00:19.525Z,17.77
2023-07-31T15:02:49.293Z,17.78
2023-07-31T15:05:17.687Z,17.77
2023-07-31T15:07:46.053Z,17.78
2023-07-31T15:10:14.309Z,17.88
2023-07-31T15:12:44.363Z,17.83
2023-07-31T15:15:12.772Z,17.88
2023-07-31T15:17:41.109Z,17.83
2023-07-31T15:20:13.138Z,17.85
2023-07-31T15:22:41.456Z,17.83
2023-07-31T15:25:16.570Z,17.80
2023-07-31T15:27:48.017Z,17.82
2023-07-31T15:30:16.539Z,17.83
2023-07-31T15:32:51.557Z,17.77
2023-07-31T15:35:26.712Z,17.76
2023-07-31T15:37:56.491Z,17.78
2023-07-31T15:40:28.799Z,17.73
2023-07-31T15:43:03.752Z,17.73
2023-07-31T15:45:33.202Z,17.77
2023-07-31T15:48:02.176Z,17.74
2023-07-31T15:50:34.738Z,17.68
2023-07-31T15:53:03.732Z,17.80
2023-07-31T15:55:32.728Z,17.90
2023-07-31T15:58:02.370Z,17.88
2023-07-31T16:00:31.367Z,17.88
2023-07-31T16:03:03.621Z,17.95
2023-07-31T16:05:38.466Z,17.96
2023-07-31T16:08:13.427Z,17.99
2023-07-31T16:10:45.613Z,17.92
2023-07-31T16:13:16.529Z,17.98
2023-07-31T16:15:47.020Z,17.94
2023-07-31T16:18:24.143Z,17.98
2023-07-31T16:24:22.726Z,17.82
2023-07-31T16:27:09.501Z,17.91
2023-07-31T16:29:50.394Z,17.91
2023-07-31T16:32:30.036Z,17.97
2023-07-31T16:35:08.719Z,17.93
2023-07-31T16:37:41.503Z,17.97
2023-07-31T16:40:15.973Z,17.92
2023-07-31T16:42:50.239Z,17.91
2023-07-31T16:45:25.498Z,17.96
2023-07-31T16:47:59.542Z,17.88
2023-07-31T16:50:35.971Z,17.87
2023-07-31T16:53:12.320Z,17.84
2023-07-31T16:55:54.113Z,17.81
2023-07-31T16:58:30.574Z,17.80
2023-07-31T17:01:10.173Z,17.79
2023-07-31T17:03:46.593Z,17.77
2023-07-31T17:06:24.334Z,17.80
2023-07-31T17:08:56.258Z,17.78
2023-07-31T17:11:24.575Z,17.82
2023-07-31T17:13:53.013Z,17.79
2023-07-31T17:16:21.808Z,17.79
2023-07-31T17:18:50.424Z,17.80
2023-07-31T17:21:18.780Z,17.72
2023-07-31T17:23:47.062Z,17.80
2023-07-31T17:26:16.823Z,17.80
2023-07-31T17:28:45.163Z,17.80
2023-07-31T17:31:14.140Z,17.85
2023-07-31T17:33:42.709Z,17.77
2023-07-31T17:36:11.201Z,17.74
2023-07-31T17:38:39.535Z,17.81
2023-07-31T17:41:09.565Z,17.76
2023-07-31T17:43:39.413Z,17.83
2023-07-31T17:46:09.048Z,17.91
2023-07-31T17:48:39.328Z,17.87
2023-07-31T17:51:07.762Z,17.92
2023-07-31T17:53:36.062Z,17.91
2023-07-31T17:56:04.452Z,17.87
2023-07-31T17:58:32.967Z,17.89
2023-07-31T18:01:02.620Z,17.95
2023-07-31T18:03:31.791Z,17.99
2023-07-31T18:06:00.261Z,17.98
2023-07-31T18:08:28.540Z,18.02
2023-07-31T18:10:56.906Z,17.99
2023-07-31T18:13:25.273Z,17.91
2023-07-31T18:15:53.627Z,17.95
2023-07-31T18:18:23.305Z,17.97
2023-07-31T18:20:51.606Z,17.95
2023-07-31T18:23:19.930Z,17.92
2023-07-31T18:25:49.600Z,17.96
2023-07-31T18:28:17.930Z,17.91
2023-07-31T18:30:46.376Z,17.98
2023-07-31T18:33:14.730Z,17.92
2023-07-31T18:35:44.416Z,17.90
2023-07-31T18:38:12.742Z,17.96
2023-07-31T18:40:41.035Z,17.89
2023-07-31T18:43:09.408Z,17.85
2023-07-31T18:45:37.723Z,17.93
2023-07-31T18:48:06.244Z,17.94
2023-07-31T18:50:34.619Z,17.91
2023-07-31T18:53:04.353Z,17.89
2023-07-31T18:55:33.246Z,17.92
2023-07-31T18:58:01.634Z,17.92
2023-07-31T19:00:30.035Z,17.92
2023-07-31T19:02:58.411Z,17.88
2023-07-31T19:05:26.825Z,17.87
2023-07-31T19:07:55.122Z,17.88
2023-07-31T19:10:24.770Z,17.91
2023-07-31T19:12:53.805Z,17.92
2023-07-31T19:15:22.179Z,17.87
2023-07-31T19:17:50.879Z,17.79
2023-07-31T19:20:19.386Z,17.73
2023-07-31T19:22:47.726Z,17.76
2023-07-31T19:25:16.089Z,17.63
2023-07-31T19:27:46.747Z,17.41
2023-07-31T19:30:16.397Z,17.21
2023-07-31T19:32:44.773Z,17.05
2023-07-31T19:35:14.995Z,17.00
2023-07-31T19:37:43.339Z,17.02
2023-07-31T19:40:12.371Z,16.96
2023-07-31T19:42:40.713Z,16.96
2023-07-31T19:45:11.719Z,17.04
2023-07-31T19:47:40.096Z,16.98
2023-07-31T19:50:09.520Z,16.99
2023-07-31T19:52:37.889Z,16.93
2023-07-31T19:55:07.096Z,16.92
2023-07-31T19:57:35.471Z,16.96
2023-07-31T20:00:05.480Z,16.87
2023-07-31T20:02:39.939Z,16.91
2023-07-31T20:05:09.600Z,16.93
2023-07-31T20:07:37.934Z,16.89
2023-07-31T20:10:06.893Z,16.87
2023-07-31T20:12:35.227Z,16.93
2023-07-31T20:15:05.933Z,16.82
2023-07-31T20:17:34.342Z,16.80
2023-07-31T20:20:04.038Z,16.87
2023-07-31T20:22:32.359Z,16.89
2023-07-31T20:25:00.724Z,16.82
2023-07-31T20:27:29.050Z,16.96
2023-07-31T20:29:57.661Z,16.96
2023-07-31T20:32:25.977Z,17.01
2023-07-31T20:34:54.294Z,17.00
2023-07-31T20:37:24.064Z,17.08
2023-07-31T20:39:52.355Z,17.14
2023-07-31T20:42:21.980Z,17.09
2023-07-31T20:44:50.343Z,17.20
2023-07-31T20:47:18.701Z,17.22
2023-07-31T20:49:47.055Z,17.13
2023-07-31T20:52:15.344Z,17.19
2023-07-31T20:54:45.059Z,17.18
2023-07-31T20:57:13.540Z,17.21
2023-07-31T20:59:41.987Z,17.19
2023-07-31T21:02:10.585Z,17.33
2023-07-31T21:04:39.163Z,17.24
2023-07-31T21:07:11.353Z,17.29
2023-07-31T21:09:39.660Z,17.28
2023-07-31T21:12:10.362Z,17.31
2023-07-31T21:14:38.686Z,17.36
2023-07-31T21:17:08.539Z,17.32
2023-07-31T21:19:36.904Z,17.33
2023-07-31T21:22:05.470Z,17.34
2023-07-31T21:24:33.775Z,17.33
2023-07-31T21:27:02.235Z,17.33
2023-07-31T21:29:32.021Z,17.33
2023-07-31T21:32:00.398Z,17.31
2023-07-31T21:34:30.234Z,17.25
2023-07-31T21:36:58.526Z,17.26
2023-07-31T21:39:26.836Z,17.29
2023-07-31T21:41:55.251Z,17.24
2023-07-31T21:44:23.560Z,17.22
2023-07-31T21:46:53.242Z,17.18
2023-07-31T21:49:21.665Z,17.14
2023-07-31T21:51:50.038Z,17.07
2023-07-31T21:54:18.701Z,17.06
2023-07-31T21:56:47.051Z,17.10
2023-07-31T21:59:15.352Z,17.01
2023-07-31T22:01:43.741Z,17.00
2023-07-31T22:04:13.397Z,16.96
2023-07-31T22:06:41.971Z,16.95
2023-07-31T22:09:10.491Z,16.86
2023-07-31T22:11:38.746Z,16.87
2023-07-31T22:14:07.072Z,16.87
2023-07-31T22:16:36.110Z,16.77
2023-07-31T22:19:04.557Z,16.81
2023-07-31T22:21:34.685Z,16.85
2023-07-31T22:24:03.052Z,16.88
2023-07-31T22:26:31.352Z,16.82
2023-07-31T22:28:59.707Z,16.84
2023-07-31T22:31:27.997Z,16.76
2023-07-31T22:33:56.530Z,16.80
2023-07-31T22:36:24.826Z,16.80
2023-07-31T22:38:54.495Z,16.80
2023-07-31T22:41:22.758Z,16.65
2023-07-31T22:43:51.053Z,16.61
2023-07-31T22:46:19.419Z,16.58
2023-07-31T22:48:48.260Z,16.60
2023-07-31T22:51:16.533Z,16.63
2023-07-31T22:53:44.849Z,16.59
2023-07-31T22:56:14.492Z,16.52
2023-07-31T22:58:42.791Z,16.44
2023-07-31T23:01:11.561Z,16.47
2023-07-31T23:03:39.850Z,16.44
2023-07-31T23:06:08.362Z,16.44
2023-07-31T23:08:36.806Z,16.47
2023-07-31T23:11:05.106Z,16.33
2023-07-31T23:13:35.472Z,16.32
2023-07-31T23:16:03.995Z,16.22
2023-07-31T23:18:32.512Z,16.19
2023-07-31T23:21:00.835Z,16.13
2023-07-31T23:23:29.188Z,16.08
2023-07-31T23:25:57.575Z,16.00
2023-07-31T23:28:25.909Z,16.07
2023-07-31T23:30:55.621Z,15.87
2023-07-31T23:33:23.953Z,15.89
2023-07-31T23:35:52.243Z,15.97
2023-07-31T23:38:21.439Z,15.78
2023-07-31T23:40:49.712Z,15.80
2023-07-31T23:43:18.054Z,15.73
2023-07-31T23:45:46.362Z,15.68
2023-07-31T23:48:16.069Z,15.67
2023-07-31T23:50:44.361Z,15.61
2023-07-31T23:53:12.753Z,15.68
2023-07-31T23:55:41.127Z,15.65
2023-07-31T23:58:09.945Z,15.56
